Time;durP1;ratioP1;P1;durP2;ratioP2;P2;SDS_P1;SDS_P2;PMS_P1;PMS_P2;Temp;Humidity;BMP_temperature;BMP_pressure;BME280_temperature;BME280_humidity;BME280_pressure;Samples;Min_cycle;Max_cycle;Signal;HPM_P1;HPM_P2
2021/11/19 00:01:55;;;;;;;13.03;4.17;;;13.60;99.90;;;;;;4987221;28;20204;-76
2021/11/19 00:04:22;;;;;;;15.30;3.97;;;13.50;99.90;;;;;;4986751;28;20220;-76
2021/11/19 00:06:49;;;;;;;8.30;3.40;;;13.50;99.90;;;;;;4972550;28;20216;-76
2021/11/19 00:09:16;;;;;;;12.10;3.87;;;13.50;99.90;;;;;;4967918;28;20208;-76
2021/11/19 00:11:47;;;;;;;14.77;2.90;;;13.50;99.90;;;;;;4967688;28;20220;-76
2021/11/19 00:14:15;;;;;;;9.13;3.03;;;13.50;99.90;;;;;;4966695;28;20200;-76
2021/11/19 00:16:46;;;;;;;12.77;3.73;;;13.50;99.90;;;;;;4967808;28;20208;-77
2021/11/19 00:19:14;;;;;;;19.83;3.60;;;13.50;99.90;;;;;;4967581;28;20208;-76
2021/11/19 00:21:43;;;;;;;14.63;3.10;;;13.50;99.90;;;;;;4966626;28;20212;-77
2021/11/19 00:24:11;;;;;;;15.07;4.30;;;13.50;99.90;;;;;;4967608;28;20197;-76
2021/11/19 00:26:39;;;;;;;14.03;3.30;;;13.50;99.90;;;;;;4969585;28;20322;-75
2021/11/19 00:29:09;;;;;;;14.00;4.03;;;13.50;99.90;;;;;;4967400;28;20210;-77
2021/11/19 00:31:36;;;;;;;13.57;4.03;;;13.50;99.90;;;;;;4967592;28;20799;-76
2021/11/19 00:34:02;;;;;;;15.03;3.80;;;13.50;99.90;;;;;;4966148;28;20219;-77
2021/11/19 00:36:31;;;;;;;15.67;4.10;;;13.50;99.90;;;;;;4966993;28;20196;-78
2021/11/19 00:39:01;;;;;;;10.73;3.73;;;13.50;99.90;;;;;;4967424;28;20232;-76
2021/11/19 00:41:29;;;;;;;16.53;4.37;;;13.50;99.90;;;;;;4966897;28;20228;-78
2021/11/19 00:43:56;;;;;;;14.30;3.67;;;13.40;99.90;;;;;;4967554;28;20208;-78
2021/11/19 00:46:25;;;;;;;14.30;3.57;;;13.50;99.90;;;;;;4966970;28;20239;-78
2021/11/19 00:48:54;;;;;;;15.73;3.60;;;13.50;99.90;;;;;;4975927;28;20555;-76
2021/11/19 00:51:23;;;;;;;18.73;4.17;;;13.50;99.90;;;;;;4986322;28;20417;-76
2021/11/19 00:53:54;;;;;;;19.13;4.97;;;13.40;99.90;;;;;;4986451;28;20215;-78
2021/11/19 00:56:24;;;;;;;13.93;3.63;;;13.40;99.90;;;;;;4985080;28;20196;-76
2021/11/19 00:58:52;;;;;;;19.90;4.40;;;13.40;99.90;;;;;;4966548;28;20235;-78
2021/11/19 01:01:22;;;;;;;9.63;3.80;;;13.40;99.90;;;;;;4966893;28;20215;-77
2021/11/19 01:03:50;;;;;;;11.07;3.40;;;13.40;99.90;;;;;;4965519;28;20668;-77
2021/11/19 01:06:17;;;;;;;9.57;3.37;;;13.40;99.90;;;;;;4966642;28;20314;-78
2021/11/19 01:08:44;;;;;;;12.97;3.63;;;13.40;99.90;;;;;;4966590;28;20212;-76
2021/11/19 01:11:15;;;;;;;14.93;4.60;;;13.50;99.90;;;;;;4966211;28;21067;-76
2021/11/19 01:13:46;;;;;;;10.90;4.20;;;13.40;99.90;;;;;;4966366;28;20595;-78
2021/11/19 01:16:20;;;;;;;11.33;3.80;;;13.50;99.90;;;;;;4966065;28;20320;-76
2021/11/19 01:18:51;;;;;;;14.90;4.87;;;13.50;99.90;;;;;;4966667;28;20208;-76
2021/11/19 01:21:22;;;;;;;10.23;3.83;;;13.40;99.90;;;;;;4966692;28;20935;-77
2021/11/19 01:23:50;;;;;;;15.70;4.43;;;13.40;99.90;;;;;;4965910;28;20200;-76
2021/11/19 01:26:20;;;;;;;14.03;3.93;;;13.50;99.90;;;;;;4967480;28;20228;-76
2021/11/19 01:28:48;;;;;;;14.20;4.40;;;13.40;99.90;;;;;;4967133;28;20201;-77
2021/11/19 01:31:19;;;;;;;11.43;4.37;;;13.50;99.90;;;;;;4965860;28;20224;-76
2021/11/19 01:33:47;;;;;;;13.60;4.57;;;13.50;99.90;;;;;;4966694;28;20204;-76
2021/11/19 01:36:17;;;;;;;13.97;4.27;;;13.50;99.90;;;;;;4986143;28;20239;-77
2021/11/19 01:38:48;;;;;;;16.43;4.90;;;13.60;99.90;;;;;;4985428;28;20239;-76
2021/11/19 01:41:17;;;;;;;11.17;4.47;;;13.60;99.90;;;;;;4985860;28;20655;-78
2021/11/19 01:43:45;;;;;;;14.97;4.80;;;13.60;99.90;;;;;;4975420;28;20609;-77
2021/11/19 01:46:18;;;;;;;15.30;4.67;;;13.50;99.90;;;;;;4965549;28;20227;-77
2021/11/19 01:48:48;;;;;;;7.93;4.77;;;13.50;99.90;;;;;;4965629;28;20676;-77
2021/11/19 01:51:25;;;;;;;13.97;4.97;;;13.50;99.90;;;;;;4966094;28;20211;-77
2021/11/19 01:53:57;;;;;;;18.97;5.30;;;13.50;99.90;;;;;;4966547;28;20212;-76
2021/11/19 01:56:29;;;;;;;17.87;5.27;;;13.60;99.90;;;;;;4965930;28;20208;-77
2021/11/19 01:58:58;;;;;;;14.17;4.63;;;13.60;99.90;;;;;;4965457;28;20196;-77
2021/11/19 02:01:29;;;;;;;12.33;4.60;;;13.60;99.90;;;;;;4966269;28;20215;-76
2021/11/19 02:03:58;;;;;;;17.20;6.50;;;13.50;99.90;;;;;;4965998;28;20201;-76
2021/11/19 02:06:29;;;;;;;17.43;6.70;;;13.50;99.90;;;;;;4965637;28;20232;-78
2021/11/19 02:08:59;;;;;;;16.43;7.00;;;13.50;99.90;;;;;;4966913;28;20204;-77
2021/11/19 02:11:35;;;;;;;16.97;5.93;;;13.50;99.90;;;;;;4965694;28;20197;-77
2021/11/19 02:14:07;;;;;;;17.23;6.50;;;13.60;99.90;;;;;;4965629;28;20211;-77
2021/11/19 02:16:36;;;;;;;18.67;5.93;;;13.60;99.90;;;;;;4965658;28;20673;-78
2021/11/19 02:19:07;;;;;;;18.03;6.20;;;13.60;99.90;;;;;;4965703;28;20208;-77
2021/11/19 02:21:40;;;;;;;18.17;6.20;;;13.60;99.90;;;;;;4966181;28;20208;-75
2021/11/19 02:24:12;;;;;;;16.53;6.10;;;13.60;99.90;;;;;;4966538;28;20200;-75
2021/11/19 02:26:42;;;;;;;17.27;5.77;;;13.60;99.90;;;;;;4981108;28;20224;-74
2021/11/19 02:29:09;;;;;;;16.87;5.90;;;13.70;99.90;;;;;;4971270;28;20220;-77
2021/11/19 02:31:47;;;;;;;13.57;5.53;;;13.70;99.90;;;;;;4965538;28;20695;-76
2021/11/19 02:34:14;;;;;;;16.20;6.23;;;13.60;99.90;;;;;;4964677;28;20212;-78
2021/11/19 02:36:46;;;;;;;15.80;4.97;;;13.60;99.90;;;;;;4965177;28;20205;-76
2021/11/19 02:39:17;;;;;;;11.97;5.10;;;13.60;99.90;;;;;;4964974;28;20757;-77
2021/11/19 02:41:49;;;;;;;14.77;5.77;;;13.60;99.90;;;;;;4965439;28;20211;-78
2021/11/19 02:44:19;;;;;;;15.43;5.13;;;13.60;99.90;;;;;;4965774;28;20200;-77
2021/11/19 02:46:48;;;;;;;13.27;5.60;;;13.50;99.90;;;;;;4966020;28;20232;-78
2021/11/19 02:49:16;;;;;;;16.93;6.50;;;13.50;99.90;;;;;;4964914;28;20227;-76
2021/11/19 02:51:46;;;;;;;17.33;6.17;;;13.60;99.90;;;;;;4965461;28;20216;-76
2021/11/19 02:54:15;;;;;;;16.27;6.33;;;13.60;99.90;;;;;;4965221;28;20224;-77
2021/11/19 02:56:44;;;;;;;13.87;5.07;;;13.50;99.90;;;;;;4967925;28;20220;-77
2021/11/19 02:59:10;;;;;;;17.63;6.17;;;13.50;99.90;;;;;;4969650;28;20228;-78
2021/11/19 03:01:41;;;;;;;19.80;8.27;;;13.50;99.90;;;;;;4968856;28;20215;-77
2021/11/19 03:04:12;;;;;;;18.43;9.00;;;13.60;99.90;;;;;;4969778;28;20208;-76
2021/11/19 03:06:46;;;;;;;15.70;7.27;;;13.50;99.90;;;;;;4968860;28;20232;-76
2021/11/19 03:09:15;;;;;;;15.63;7.00;;;13.50;99.90;;;;;;4968757;28;20204;-76
2021/11/19 03:11:43;;;;;;;14.17;6.97;;;13.50;99.90;;;;;;4968963;28;20208;-76
2021/11/19 03:14:12;;;;;;;15.97;6.10;;;13.50;99.90;;;;;;4968945;28;20551;-75
2021/11/19 03:16:40;;;;;;;15.33;6.50;;;13.50;99.90;;;;;;4968147;28;20756;-76
2021/11/19 03:19:08;;;;;;;16.73;6.47;;;13.50;99.90;;;;;;4968948;28;20212;-76
2021/11/19 03:21:36;;;;;;;16.17;6.33;;;13.50;99.90;;;;;;4969026;28;20208;-77
2021/11/19 03:24:05;;;;;;;15.30;6.90;;;13.50;99.90;;;;;;4968328;28;20215;-78
2021/11/19 03:26:34;;;;;;;16.60;7.23;;;13.50;99.90;;;;;;4983249;28;20242;-76
2021/11/19 03:29:01;;;;;;;18.13;6.77;;;13.50;99.90;;;;;;4988439;28;20643;-77
2021/11/19 03:31:28;;;;;;;17.57;6.97;;;13.40;99.90;;;;;;4973927;28;20208;-76
2021/11/19 03:33:55;;;;;;;16.10;6.20;;;13.50;99.90;;;;;;4968602;28;20204;-75
2021/11/19 03:36:24;;;;;;;13.97;6.47;;;13.50;99.90;;;;;;4968436;28;20205;-76
2021/11/19 03:38:53;;;;;;;14.37;6.50;;;13.50;99.90;;;;;;4968529;28;20241;-76
2021/11/19 03:41:24;;;;;;;17.70;6.90;;;13.50;99.90;;;;;;4968518;28;20603;-75
2021/11/19 03:43:54;;;;;;;14.30;6.13;;;13.40;99.90;;;;;;4968876;28;20208;-76
2021/11/19 03:46:24;;;;;;;20.03;6.73;;;13.40;99.90;;;;;;4968204;28;20632;-77
2021/11/19 03:48:50;;;;;;;12.20;5.87;;;13.40;99.90;;;;;;4968217;28;20239;-76
2021/11/19 03:51:35;;;;;;;15.80;6.50;;;13.40;99.90;;;;;;4967375;28;20193;-77
2021/11/19 03:54:02;;;;;;;16.37;5.90;;;13.40;99.90;;;;;;4967910;28;20815;-76
2021/11/19 03:56:30;;;;;;;15.37;6.77;;;13.40;99.90;;;;;;4968802;28;20203;-74
2021/11/19 03:58:57;;;;;;;16.37;6.67;;;13.40;99.90;;;;;;4967642;28;20223;-76
2021/11/19 04:01:29;;;;;;;16.17;6.10;;;13.40;99.90;;;;;;4968327;28;20204;-76
2021/11/19 04:03:56;;;;;;;16.87;6.23;;;13.40;99.90;;;;;;4968363;28;20205;-77
2021/11/19 04:06:24;;;;;;;20.43;6.80;;;13.50;99.90;;;;;;4966431;28;20239;-76
2021/11/19 04:08:51;;;;;;;14.67;5.93;;;13.50;99.90;;;;;;4967567;28;20435;-76
2021/11/19 04:11:18;;;;;;;16.20;6.87;;;13.40;99.90;;;;;;4967829;28;20212;-77
2021/11/19 04:13:48;;;;;;;12.67;6.07;;;13.40;99.90;;;;;;4967811;28;20313;-77
2021/11/19 04:16:18;;;;;;;14.53;6.77;;;13.50;99.90;;;;;;4967687;28;20205;-77
2021/11/19 04:18:46;;;;;;;19.80;7.20;;;13.40;99.90;;;;;;4967331;28;20221;-77
2021/11/19 04:21:14;;;;;;;15.03;6.27;;;13.40;99.90;;;;;;4967544;28;20514;-77
2021/11/19 04:23:41;;;;;;;16.57;6.47;;;13.40;99.90;;;;;;4967685;28;20205;-76
2021/11/19 04:26:10;;;;;;;15.67;6.00;;;13.40;99.90;;;;;;4973284;28;20625;-76
2021/11/19 04:28:37;;;;;;;17.13;6.20;;;13.40;99.90;;;;;;4967363;28;20196;-77
2021/11/19 04:31:06;;;;;;;18.90;7.23;;;13.40;99.90;;;;;;4967552;28;20209;-76
2021/11/19 04:33:34;;;;;;;9.93;6.20;;;13.40;99.90;;;;;;4966951;28;20212;-77
2021/11/19 04:36:01;;;;;;;18.50;6.83;;;13.30;99.90;;;;;;4966898;28;20197;-76
2021/11/19 04:38:29;;;;;;;15.37;7.23;;;13.40;99.90;;;;;;4967155;28;20225;-75
2021/11/19 04:40:56;;;;;;;16.10;6.67;;;13.40;99.90;;;;;;4966892;28;20201;-75
2021/11/19 04:43:25;;;;;;;19.33;6.90;;;13.30;99.90;;;;;;4967059;28;20223;-76
2021/11/19 04:45:53;;;;;;;16.53;6.67;;;13.30;99.90;;;;;;4967614;28;20224;-76
2021/11/19 04:48:24;;;;;;;16.10;5.87;;;13.30;99.90;;;;;;4965509;28;20254;-76
2021/11/19 04:50:51;;;;;;;17.00;6.33;;;13.30;99.90;;;;;;4967244;28;20576;-76
2021/11/19 04:53:21;;;;;;;18.70;6.30;;;13.30;99.90;;;;;;4967280;28;20208;-76
2021/11/19 04:55:48;;;;;;;19.40;6.30;;;13.30;99.90;;;;;;4967329;28;20212;-76
2021/11/19 04:58:16;;;;;;;15.03;6.20;;;13.30;99.90;;;;;;4967730;28;20209;-76
2021/11/19 05:00:46;;;;;;;16.97;6.20;;;13.30;99.90;;;;;;4967566;28;20211;-76
2021/11/19 05:03:14;;;;;;;16.17;5.60;;;13.30;99.90;;;;;;4966940;28;20235;-76
2021/11/19 05:05:43;;;;;;;17.90;6.50;;;13.30;99.90;;;;;;4967241;28;20534;-76
2021/11/19 05:08:11;;;;;;;19.70;6.07;;;13.30;99.90;;;;;;4966824;28;20231;-78
2021/11/19 05:10:40;;;;;;;19.03;5.50;;;13.30;99.90;;;;;;4966755;28;20494;-77
2021/11/19 05:13:09;;;;;;;16.17;7.37;;;13.30;99.90;;;;;;4966864;28;20204;-77
2021/11/19 05:15:38;;;;;;;18.13;6.63;;;13.30;99.90;;;;;;4966771;28;20231;-77
2021/11/19 05:18:05;;;;;;;13.23;5.87;;;13.30;99.90;;;;;;4965937;28;20220;-76
2021/11/19 05:20:32;;;;;;;14.97;6.13;;;13.30;99.90;;;;;;4967118;28;20215;-76
2021/11/19 05:23:01;;;;;;;16.07;6.57;;;13.20;99.90;;;;;;4966672;28;20232;-76
2021/11/19 05:25:30;;;;;;;14.97;5.40;;;13.30;99.90;;;;;;4971714;28;20204;-77
2021/11/19 05:27:58;;;;;;;19.07;6.17;;;13.30;99.90;;;;;;4969111;28;20224;-76
2021/11/19 05:30:25;;;;;;;11.83;5.13;;;13.30;99.90;;;;;;4966540;28;20219;-76
2021/11/19 05:32:52;;;;;;;14.63;5.30;;;13.30;99.90;;;;;;4967230;28;20211;-76
2021/11/19 05:35:23;;;;;;;14.00;4.77;;;13.20;99.90;;;;;;4967024;28;20204;-76
2021/11/19 05:37:50;;;;;;;15.63;5.20;;;13.30;99.90;;;;;;4984898;28;20224;-76
2021/11/19 05:40:21;;;;;;;17.00;4.80;;;13.30;99.90;;;;;;4985316;28;20212;-76
2021/11/19 05:42:49;;;;;;;15.00;6.30;;;13.30;99.90;;;;;;4985673;28;20204;-76
2021/11/19 05:45:17;;;;;;;16.70;7.53;;;13.30;99.90;;;;;;4979154;28;20597;-77
2021/11/19 05:47:44;;;;;;;15.00;6.97;;;13.30;99.90;;;;;;4965866;28;20249;-77
2021/11/19 05:50:14;;;;;;;18.70;7.30;;;13.20;99.90;;;;;;4965391;28;20722;-77
2021/11/19 05:52:41;;;;;;;19.87;6.53;;;13.30;99.90;;;;;;4966163;28;20200;-77
2021/11/19 05:55:11;;;;;;;14.70;5.83;;;13.20;99.90;;;;;;4965701;28;20204;-77
2021/11/19 05:57:40;;;;;;;12.97;5.73;;;13.20;99.90;;;;;;4965775;28;20772;-76
2021/11/19 06:00:10;;;;;;;19.70;6.10;;;13.20;99.90;;;;;;4965592;28;20208;-75
2021/11/19 06:02:36;;;;;;;13.47;5.63;;;13.20;99.90;;;;;;4966215;28;20212;-77
2021/11/19 06:05:04;;;;;;;14.13;5.33;;;13.20;99.90;;;;;;4965885;28;20208;-76
2021/11/19 06:07:31;;;;;;;16.00;5.57;;;13.20;99.90;;;;;;4966780;28;20224;-76
2021/11/19 06:09:59;;;;;;;15.27;4.97;;;13.10;99.90;;;;;;4966725;28;20227;-75
2021/11/19 06:12:29;;;;;;;12.50;5.13;;;13.10;99.90;;;;;;4965169;28;20571;-76
2021/11/19 06:15:01;;;;;;;9.30;4.80;;;13.20;99.90;;;;;;4966468;28;20211;-77
2021/11/19 06:17:31;;;;;;;14.53;5.53;;;13.10;99.90;;;;;;4965857;28;20205;-76
2021/11/19 06:20:01;;;;;;;13.07;5.40;;;13.20;99.90;;;;;;4965634;28;20216;-77
2021/11/19 06:22:32;;;;;;;18.43;5.00;;;13.20;99.90;;;;;;4965668;28;20207;-77
2021/11/19 06:24:59;;;;;;;12.27;4.60;;;13.20;99.90;;;;;;4968579;28;20259;-76
2021/11/19 06:27:29;;;;;;;14.90;5.67;;;13.20;99.90;;;;;;4984647;28;20223;-77
2021/11/19 06:29:58;;;;;;;10.83;4.90;;;13.20;99.90;;;;;;4987141;28;20860;-76
2021/11/19 06:32:26;;;;;;;16.10;5.00;;;13.20;99.90;;;;;;4986302;28;20208;-76
2021/11/19 06:34:54;;;;;;;15.40;4.50;;;13.20;99.90;;;;;;4969729;28;20208;-76
2021/11/19 06:37:21;;;;;;;12.37;4.40;;;13.30;99.90;;;;;;4969052;28;20236;-77
2021/11/19 06:39:48;;;;;;;14.00;4.87;;;13.20;99.90;;;;;;4969149;28;20200;-76
2021/11/19 06:42:16;;;;;;;12.97;4.80;;;13.20;99.90;;;;;;4969718;28;20215;-77
2021/11/19 06:44:45;;;;;;;14.53;5.10;;;13.20;99.90;;;;;;5008518;23;20245;-75
2021/11/19 06:47:15;;;;;;;8.63;3.87;;;13.20;99.90;;;;;;5027024;28;20226;-78
2021/11/19 06:49:42;;;;;;;7.70;3.50;;;13.20;99.90;;;;;;5027400;28;20265;-76
2021/11/19 06:52:09;;;;;;;14.63;3.93;;;13.20;99.90;;;;;;5027718;28;20209;-76
2021/11/19 06:54:38;;;;;;;16.07;4.70;;;13.20;99.90;;;;;;5027557;28;20205;-76
2021/11/19 06:57:06;;;;;;;19.00;4.37;;;13.10;99.90;;;;;;5028096;28;20207;-76
2021/11/19 06:59:33;;;;;;;14.90;4.00;;;13.10;99.90;;;;;;5026938;28;20209;-77
2021/11/19 07:02:00;;;;;;;10.63;3.80;;;13.20;99.90;;;;;;5027747;28;20203;-75
2021/11/19 07:04:29;;;;;;;9.97;3.47;;;13.20;99.90;;;;;;5027490;28;20214;-77
2021/11/19 07:06:56;;;;;;;12.90;3.57;;;13.20;99.90;;;;;;5027151;28;20665;-76
2021/11/19 07:09:23;;;;;;;16.93;3.40;;;13.20;99.90;;;;;;5026950;28;20276;-76
2021/11/19 07:11:50;;;;;;;17.73;4.33;;;13.20;99.90;;;;;;5027921;28;20202;-76
2021/11/19 07:14:17;;;;;;;11.27;2.63;;;13.20;99.90;;;;;;5026870;28;20213;-76
2021/11/19 07:16:46;;;;;;;14.03;3.90;;;13.20;99.90;;;;;;5027570;28;20203;-77
2021/11/19 07:19:13;;;;;;;12.10;3.17;;;13.20;99.90;;;;;;5027500;28;20218;-77
2021/11/19 07:21:41;;;;;;;12.03;4.13;;;13.20;99.90;;;;;;5026139;28;20214;-75
2021/11/19 07:24:08;;;;;;;15.10;3.37;;;13.30;99.90;;;;;;5027319;28;20207;-75
2021/11/19 07:26:35;;;;;;;14.20;3.37;;;13.30;99.90;;;;;;5027351;28;20215;-75
2021/11/19 07:29:03;;;;;;;10.97;3.10;;;13.30;99.90;;;;;;5027256;28;20199;-77
2021/11/19 07:31:30;;;;;;;14.07;3.57;;;13.30;99.90;;;;;;5026409;28;20218;-75
2021/11/19 07:33:57;;;;;;;10.00;2.87;;;13.30;99.90;;;;;;5026939;28;20206;-77
2021/11/19 07:36:24;;;;;;;14.23;3.23;;;13.30;99.90;;;;;;5026361;28;20237;-75
2021/11/19 07:38:55;;;;;;;12.90;3.00;;;13.40;99.90;;;;;;5027208;28;20329;-76
2021/11/19 07:41:23;;;;;;;10.13;2.83;;;13.40;99.90;;;;;;5026364;28;20238;-77
2021/11/19 07:43:50;;;;;;;15.40;3.80;;;13.40;99.90;;;;;;5029274;28;20237;-76
2021/11/19 07:46:28;;;;;;;11.87;3.50;;;13.50;99.90;;;;;;5046765;28;20205;-77
2021/11/19 07:48:55;;;;;;;12.50;3.30;;;13.50;99.90;;;;;;5046743;28;20641;-78
2021/11/19 07:51:24;;;;;;;10.47;3.40;;;13.50;99.90;;;;;;5045640;28;20595;-77
2021/11/19 07:53:53;;;;;;;14.63;3.67;;;13.60;99.90;;;;;;5045992;28;20210;-76
2021/11/19 07:56:27;;;;;;;4.93;2.90;;;13.60;99.90;;;;;;5046310;28;20206;-76
2021/11/19 07:58:54;;;;;;;15.53;3.70;;;13.60;99.90;;;;;;5046594;28;20313;-75
2021/11/19 08:01:21;;;;;;;10.50;3.10;;;13.60;99.90;;;;;;5046688;28;20213;-77
2021/11/19 08:03:47;;;;;;;10.27;3.80;;;13.60;99.90;;;;;;5045727;28;20221;-75
2021/11/19 08:06:15;;;;;;;13.33;3.70;;;13.60;99.90;;;;;;5046632;28;20194;-75
2021/11/19 08:08:41;;;;;;;15.13;3.63;;;13.60;99.90;;;;;;5047129;28;20232;-76
2021/11/19 08:11:12;;;;;;;8.17;3.53;;;13.60;99.90;;;;;;5045699;28;20237;-75
2021/11/19 08:13:39;;;;;;;10.90;3.70;;;13.60;99.90;;;;;;5046894;28;20925;-75
2021/11/19 08:16:07;;;;;;;8.93;3.40;;;13.60;99.90;;;;;;5046916;28;20217;-76
2021/11/19 08:18:37;;;;;;;13.07;3.67;;;13.60;99.90;;;;;;5045492;28;20216;-76
2021/11/19 08:21:07;;;;;;;14.40;3.50;;;13.60;99.90;;;;;;5046781;28;20198;-76
2021/11/19 08:23:38;;;;;;;10.33;3.53;;;13.60;99.90;;;;;;5046149;28;20209;-76
2021/11/19 08:26:08;;;;;;;9.93;3.50;;;13.60;99.90;;;;;;5045425;28;20208;-76
2021/11/19 08:28:37;;;;;;;8.93;3.07;;;13.60;99.90;;;;;;5045599;28;20222;-76
2021/11/19 08:31:07;;;;;;;11.77;3.40;;;13.50;99.90;;;;;;5046200;28;20513;-78
2021/11/19 08:33:34;;;;;;;15.47;3.93;;;13.50;99.90;;;;;;5044480;28;20225;-76
2021/11/19 08:36:01;;;;;;;17.07;3.87;;;13.50;99.90;;;;;;5045716;28;20543;-77
2021/11/19 08:38:28;;;;;;;10.90;3.67;;;13.50;99.90;;;;;;5044515;28;20217;-76
2021/11/19 08:40:57;;;;;;;12.67;3.97;;;13.60;99.90;;;;;;5058386;28;20209;-77
2021/11/19 08:43:26;;;;;;;12.37;3.40;;;13.60;99.90;;;;;;5045502;28;20966;-78
2021/11/19 08:45:56;;;;;;;11.77;3.20;;;13.60;99.90;;;;;;5045493;28;20201;-76
2021/11/19 08:48:25;;;;;;;8.80;3.23;;;13.50;99.90;;;;;;5045020;28;20218;-75
2021/11/19 08:50:53;;;;;;;9.97;3.67;;;13.50;99.90;;;;;;5045618;28;20259;-77
2021/11/19 08:53:20;;;;;;;13.80;3.40;;;13.50;99.90;;;;;;5044020;28;20194;-76
2021/11/19 08:55:49;;;;;;;12.83;3.60;;;13.40;99.90;;;;;;5045285;28;20680;-75
2021/11/19 08:58:17;;;;;;;10.80;3.47;;;13.40;99.90;;;;;;5045940;28;20205;-76
2021/11/19 09:00:46;;;;;;;12.60;2.93;;;13.40;99.90;;;;;;5044856;28;20234;-76
2021/11/19 09:03:15;;;;;;;11.23;3.40;;;13.30;99.90;;;;;;5045627;28;20206;-77
2021/11/19 09:05:45;;;;;;;13.07;2.70;;;13.30;99.90;;;;;;5044473;28;20205;-77
2021/11/19 09:08:16;;;;;;;9.90;2.90;;;13.30;99.90;;;;;;5042893;28;20240;-77
2021/11/19 09:10:44;;;;;;;12.77;4.07;;;13.20;99.90;;;;;;5044574;28;20202;-75
2021/11/19 09:13:12;;;;;;;12.93;3.10;;;13.30;99.90;;;;;;5043074;28;20205;-75
2021/11/19 09:15:39;;;;;;;15.10;4.00;;;13.30;99.90;;;;;;5043380;28;20202;-76
2021/11/19 09:18:13;;;;;;;13.10;3.27;;;13.20;99.90;;;;;;5045584;28;20209;-75
2021/11/19 09:20:54;;;;;;;8.43;2.43;;;13.20;99.90;;;;;;5045402;28;20497;-77
2021/11/19 09:23:24;;;;;;;10.07;3.07;;;13.20;99.90;;;;;;5043784;28;20213;-75
2021/11/19 09:25:53;;;;;;;13.53;3.30;;;13.20;99.90;;;;;;5045313;28;20198;-76
2021/11/19 09:28:22;;;;;;;10.70;3.20;;;13.20;99.90;;;;;;5044382;28;20226;-78
2021/11/19 09:30:55;;;;;;;11.17;3.03;;;13.20;99.90;;;;;;5044414;28;20941;-76
2021/11/19 09:33:24;;;;;;;8.57;2.70;;;13.20;99.90;;;;;;5044641;28;20193;-76
2021/11/19 09:35:53;;;;;;;12.87;3.10;;;13.20;99.90;;;;;;5045198;28;20198;-77
2021/11/19 09:38:22;;;;;;;12.90;3.20;;;13.20;99.90;;;;;;5044287;28;20775;-77
2021/11/19 09:40:57;;;;;;;12.93;3.03;;;13.10;99.90;;;;;;5045046;28;20210;-77
2021/11/19 09:43:33;;;;;;;11.80;2.80;;;13.20;99.90;;;;;;5044382;28;20204;-78
2021/11/19 09:46:36;;;;;;;10.93;2.63;;;13.30;99.90;;;;;;5044927;28;20201;-77
2021/11/19 09:49:12;;;;;;;9.93;2.80;;;13.40;99.90;;;;;;5043280;28;20633;-76
2021/11/19 09:52:35;;;;;;;14.20;3.33;;;13.50;99.90;;;;;;5024232;28;20197;-76
2021/11/19 09:55:30;;;;;;;12.27;3.03;;;13.70;99.90;;;;;;5025045;28;20637;-76
2021/11/19 09:58:28;;;;;;;9.27;2.80;;;13.80;99.90;;;;;;5024663;28;20191;-77
2021/11/19 10:01:33;;;;;;;14.53;3.07;;;13.80;99.90;;;;;;5042808;28;20213;-77
2021/11/19 10:04:34;;;;;;;16.93;3.40;;;13.80;99.90;;;;;;5043344;28;20213;-77
2021/11/19 10:07:11;;;;;;;14.30;3.40;;;13.80;99.90;;;;;;5009307;28;20209;-76
2021/11/19 10:09:47;;;;;;;10.27;2.60;;;13.80;99.90;;;;;;5036451;28;20684;-78
2021/11/19 10:12:18;;;;;;;15.37;3.27;;;13.80;99.90;;;;;;5043862;28;20263;-76
2021/11/19 10:14:52;;;;;;;13.00;2.97;;;13.80;99.90;;;;;;5044276;28;20205;-76
2021/11/19 10:17:45;;;;;;;9.87;2.50;;;13.80;99.90;;;;;;5044011;28;20204;-77
2021/11/19 10:20:18;;;;;;;12.40;3.20;;;13.70;99.90;;;;;;5044314;28;20839;-76
2021/11/19 10:22:55;;;;;;;11.03;2.60;;;13.70;99.90;;;;;;5044110;28;20189;-77
2021/11/19 10:25:30;;;;;;;19.97;3.67;;;13.70;99.90;;;;;;5043903;28;20216;-77
2021/11/19 10:28:02;;;;;;;15.50;3.67;;;13.70;99.90;;;;;;5044509;28;20229;-77
2021/11/19 10:30:35;;;;;;;9.47;2.73;;;13.60;99.90;;;;;;5043541;28;20202;-77
2021/11/19 10:33:06;;;;;;;8.73;2.30;;;13.70;99.90;;;;;;5043540;28;20205;-75
2021/11/19 10:35:53;;;;;;;10.97;2.83;;;13.60;99.90;;;;;;5044846;28;20190;-77
2021/11/19 10:38:52;;;;;;;9.83;2.67;;;13.60;99.90;;;;;;5044150;28;20217;-76
2021/11/19 10:42:01;;;;;;;11.43;3.00;;;13.60;99.90;;;;;;5044248;28;20209;-77
2021/11/19 10:45:00;;;;;;;11.63;2.93;;;13.70;99.90;;;;;;5043865;28;20519;-76
2021/11/19 10:47:51;;;;;;;11.30;2.37;;;13.70;99.90;;;;;;5026031;28;20202;-75
2021/11/19 10:50:55;;;;;;;17.30;4.00;;;13.80;99.90;;;;;;5044240;28;20202;-76
2021/11/19 10:54:18;;;;;;;10.40;3.23;;;14.00;99.90;;;;;;5042665;28;20210;-77
2021/11/19 10:56:51;;;;;;;8.20;3.03;;;14.10;99.90;;;;;;5001879;28;20980;-77
2021/11/19 10:59:38;;;;;;;10.20;2.60;;;14.20;99.90;;;;;;5001233;28;20219;-76
2021/11/19 11:02:35;;;;;;;10.37;2.90;;;14.20;99.90;;;;;;5019425;28;20289;-78
2021/11/19 11:05:11;;;;;;;10.57;3.23;;;14.30;99.90;;;;;;5024078;28;20293;-77
2021/11/19 11:07:40;;;;;;;11.70;2.30;;;14.30;99.90;;;;;;5039922;28;20209;-76
2021/11/19 11:10:11;;;;;;;11.60;3.50;;;14.40;99.90;;;;;;5044007;28;20206;-76
2021/11/19 11:12:48;;;;;;;8.83;2.93;;;14.40;99.90;;;;;;5043146;28;20555;-77
2021/11/19 11:15:29;;;;;;;16.53;4.13;;;14.40;99.90;;;;;;5044245;28;20229;-76
2021/11/19 11:18:15;;;;;;;12.57;2.87;;;14.40;99.90;;;;;;5046091;28;20210;-76
2021/11/19 11:20:44;;;;;;;13.30;2.60;;;14.40;99.90;;;;;;5047977;28;20198;-76
2021/11/19 11:23:32;;;;;;;12.33;2.70;;;14.40;99.90;;;;;;5047384;28;20233;-76
2021/11/19 11:26:12;;;;;;;9.07;2.50;;;14.30;99.90;;;;;;5047599;28;20202;-77
2021/11/19 11:28:49;;;;;;;14.10;2.93;;;14.30;99.90;;;;;;5046683;28;20231;-76
2021/11/19 11:31:45;;;;;;;10.33;2.80;;;14.20;99.90;;;;;;5046930;28;20213;-77
2021/11/19 11:34:25;;;;;;;10.77;2.50;;;14.20;99.90;;;;;;5047292;28;20296;-76
2021/11/19 11:37:03;;;;;;;11.33;3.03;;;14.20;99.90;;;;;;5046058;28;20568;-77
2021/11/19 11:39:39;;;;;;;13.53;3.30;;;14.20;99.90;;;;;;5046945;28;20222;-76
2021/11/19 11:42:13;;;;;;;8.17;3.07;;;14.30;99.90;;;;;;5046885;28;20206;-76
2021/11/19 11:44:43;;;;;;;8.80;3.00;;;14.30;99.90;;;;;;5027371;28;20238;-77
2021/11/19 11:47:16;;;;;;;11.80;2.90;;;14.40;99.90;;;;;;5026840;28;20623;-76
2021/11/19 11:49:47;;;;;;;10.37;2.83;;;14.40;99.90;;;;;;5026300;28;20324;-77
2021/11/19 11:52:29;;;;;;;14.13;3.07;;;14.40;99.90;;;;;;5044591;28;20221;-76
2021/11/19 11:55:15;;;;;;;14.30;3.80;;;14.40;99.90;;;;;;5046802;28;20221;-75
2021/11/19 11:57:49;;;;;;;12.30;3.20;;;14.30;99.90;;;;;;5044348;28;20202;-76
2021/11/19 12:00:23;;;;;;;9.07;3.00;;;14.30;99.90;;;;;;5046625;28;20508;-76
2021/11/19 12:02:55;;;;;;;14.57;3.67;;;14.30;99.90;;;;;;5046446;28;20287;-77
2021/11/19 12:05:37;;;;;;;12.37;3.07;;;14.30;99.90;;;;;;5045541;28;20213;-77
2021/11/19 12:08:25;;;;;;;20.47;3.63;;;14.30;99.90;;;;;;5046463;28;20209;-78
2021/11/19 12:11:04;;;;;;;15.60;3.47;;;14.30;99.90;;;;;;5046520;28;20201;-77
2021/11/19 12:13:37;;;;;;;12.87;3.60;;;14.20;99.90;;;;;;5045788;28;20198;-76
2021/11/19 12:16:16;;;;;;;13.37;3.07;;;14.20;99.90;;;;;;5046094;28;20361;-76
2021/11/19 12:18:50;;;;;;;13.43;3.30;;;14.20;99.90;;;;;;5046293;28;20204;-77
2021/11/19 12:21:23;;;;;;;13.80;2.73;;;14.20;99.90;;;;;;5046709;28;20205;-76
2021/11/19 12:23:56;;;;;;;9.43;2.87;;;14.30;99.90;;;;;;5045533;28;20202;-77
2021/11/19 12:26:32;;;;;;;17.57;3.10;;;14.20;99.90;;;;;;5045138;28;20289;-77
2021/11/19 12:29:07;;;;;;;11.87;2.97;;;14.20;99.90;;;;;;5045346;28;20217;-76
2021/11/19 12:31:39;;;;;;;19.60;3.90;;;14.20;99.90;;;;;;5045751;28;20286;-77
2021/11/19 12:34:17;;;;;;;10.27;2.73;;;14.20;99.90;;;;;;5045913;28;20885;-75
2021/11/19 12:36:51;;;;;;;15.07;2.83;;;14.20;99.90;;;;;;5045787;28;20580;-76
2021/11/19 12:39:18;;;;;;;10.73;2.77;;;14.20;99.90;;;;;;5045100;28;20908;-76
2021/11/19 12:41:54;;;;;;;13.53;2.43;;;14.20;99.90;;;;;;5046293;28;20201;-76
2021/11/19 12:44:37;;;;;;;14.13;3.20;;;14.20;99.90;;;;;;5045535;28;20241;-77
2021/11/19 12:47:36;;;;;;;11.97;3.13;;;14.20;99.90;;;;;;5044747;28;20343;-78
2021/11/19 12:50:15;;;;;;;6.97;2.27;;;14.20;99.90;;;;;;5035746;28;20629;-77
2021/11/19 12:52:46;;;;;;;12.20;3.50;;;14.10;99.90;;;;;;5044371;28;20201;-78
2021/11/19 12:55:29;;;;;;;10.07;2.77;;;14.10;99.90;;;;;;5044985;28;20791;-77
2021/11/19 12:58:09;;;;;;;13.63;4.07;;;14.10;99.90;;;;;;5044689;28;20937;-76
2021/11/19 13:00:55;;;;;;;13.77;3.20;;;14.10;99.90;;;;;;5042385;28;20221;-75
2021/11/19 13:03:44;;;;;;;13.70;3.77;;;14.10;99.90;;;;;;5040580;28;20221;-76